createdAt,value
2018-07-10T00:00:08.302Z,99232.39
2018-07-10T00:02:47.289Z,99225.14
2018-07-10T00:06:45.266Z,99225.80
2018-07-10T00:09:24.156Z,99215.34
2018-07-10T00:11:52.380Z,99206.34
2018-07-10T00:14:20.285Z,99200.89
2018-07-10T00:16:48.189Z,99192.42
2018-07-10T00:19:16.061Z,99197.90
2018-07-10T00:21:44.029Z,99187.28
2018-07-10T00:24:11.930Z,99188.32
2018-07-10T00:26:39.798Z,99191.34
2018-07-10T00:29:07.953Z,99194.92
2018-07-10T00:31:35.842Z,99203.07
2018-07-10T00:34:03.720Z,99208.17
2018-07-10T00:36:31.723Z,99205.37
2018-07-10T00:39:01.674Z,99213.52
2018-07-10T00:41:33.060Z,99216.05
2018-07-10T00:44:01.706Z,99214.13
2018-07-10T00:46:30.804Z,99219.36
2018-07-10T00:48:58.857Z,99220.27
2018-07-10T00:51:27.563Z,99220.15
2018-07-10T00:53:55.526Z,99222.59
2018-07-10T00:56:23.498Z,99218.28
2018-07-10T00:58:52.993Z,99215.08
2018-07-10T01:01:21.942Z,99211.30
2018-07-10T01:03:50.137Z,99198.54
2018-07-10T01:06:18.298Z,99195.56
2018-07-10T01:08:47.032Z,99203.80
2018-07-10T01:11:16.061Z,99201.05
2018-07-10T01:13:44.914Z,99209.40
2018-07-10T01:16:13.674Z,99208.78
2018-07-10T01:18:43.649Z,99207.14
2018-07-10T01:21:16.498Z,99207.45
2018-07-10T01:23:44.549Z,99202.30
2018-07-10T01:26:13.160Z,99203.38
2018-07-10T01:28:41.913Z,99203.20
2018-07-10T01:31:10.187Z,99209.77
2018-07-10T01:33:38.246Z,99206.53
2018-07-10T01:36:07.074Z,99210.23
2018-07-10T01:38:35.858Z,99206.34
2018-07-10T01:41:04.327Z,99198.11
2018-07-10T01:43:32.618Z,99192.42
2018-07-10T01:46:00.749Z,99202.86
2018-07-10T01:48:28.604Z,99206.95
2018-07-10T01:50:56.471Z,99203.76
2018-07-10T01:53:24.538Z,99203.48
2018-07-10T01:55:52.502Z,99203.26
2018-07-10T01:58:20.742Z,99200.78
2018-07-10T02:00:48.838Z,99194.23
2018-07-10T02:03:16.777Z,99194.50
2018-07-10T02:05:44.645Z,99207.90
2018-07-10T02:08:12.528Z,99208.64
2018-07-10T02:10:40.471Z,99209.42
2018-07-10T02:13:08.661Z,99205.21
2018-07-10T02:15:36.662Z,99199.82
2018-07-10T02:18:04.629Z,99193.80
2018-07-10T02:21:07.437Z,99194.34
2018-07-10T02:23:43.444Z,99197.08
2018-07-10T02:26:17.745Z,99197.08
2018-07-10T02:28:45.757Z,99197.14
2018-07-10T02:31:13.750Z,99197.19
2018-07-10T02:33:41.701Z,99196.33
2018-07-10T02:36:09.710Z,99196.02
2018-07-10T02:38:40.975Z,99199.88
2018-07-10T02:41:10.844Z,99195.56
2018-07-10T02:43:38.857Z,99196.67
2018-07-10T02:46:07.176Z,99189.83
2018-07-10T02:48:35.454Z,99183.77
2018-07-10T02:51:05.683Z,99193.53
2018-07-10T02:53:35.602Z,99200.45
2018-07-10T02:56:03.968Z,99195.92
2018-07-10T02:58:33.948Z,99194.20
2018-07-10T03:01:02.833Z,99193.96
2018-07-10T03:03:31.751Z,99197.90
2018-07-10T03:05:59.755Z,99194.34
2018-07-10T03:08:27.825Z,99200.70
2018-07-10T03:10:55.843Z,99199.89
2018-07-10T03:13:24.679Z,99202.53
2018-07-10T03:15:53.747Z,99200.66
2018-07-10T03:18:21.790Z,99205.39
2018-07-10T03:20:49.829Z,99193.67
2018-07-10T03:23:17.884Z,99195.63
2018-07-10T03:25:45.972Z,99202.96
2018-07-10T03:28:14.019Z,99206.27
2018-07-10T03:30:42.046Z,99204.33
2018-07-10T03:33:10.069Z,99202.07
2018-07-10T03:35:38.058Z,99205.12
2018-07-10T03:38:06.094Z,99205.11
2018-07-10T03:40:34.137Z,99206.18
2018-07-10T03:43:02.197Z,99211.70
2018-07-10T03:45:30.178Z,99211.48
2018-07-10T03:47:58.705Z,99218.03
2018-07-10T03:50:27.429Z,99219.72
2018-07-10T03:52:55.470Z,99216.09
2018-07-10T03:55:24.343Z,99216.65
2018-07-10T03:57:54.331Z,99218.59
2018-07-10T04:00:22.352Z,99220.27
2018-07-10T04:02:51.407Z,99225.22
2018-07-10T04:05:20.662Z,99221.02
2018-07-10T04:07:54.081Z,99225.02
2018-07-10T04:10:26.861Z,99232.13
2018-07-10T04:12:56.346Z,99233.97
2018-07-10T04:15:24.329Z,99228.25
2018-07-10T04:18:03.977Z,99232.05
2018-07-10T04:20:41.961Z,99235.98
2018-07-10T04:23:10.022Z,99234.38
2018-07-10T04:25:47.880Z,99231.64
2018-07-10T04:28:21.455Z,99229.66
2018-07-10T04:31:32.770Z,99227.52
2018-07-10T04:34:00.845Z,99225.45
2018-07-10T04:36:28.959Z,99223.81
2018-07-10T04:38:58.262Z,99223.27
2018-07-10T04:41:29.682Z,99219.70
2018-07-10T04:44:09.807Z,99219.17
2018-07-10T04:46:41.448Z,99220.52
2018-07-10T04:49:20.473Z,99226.01
2018-07-10T04:51:54.583Z,99225.75
2018-07-10T04:54:34.034Z,99220.54
2018-07-10T04:57:08.452Z,99223.00
2018-07-10T04:59:36.773Z,99220.23
2018-07-10T05:02:05.441Z,99225.19
2018-07-10T05:04:33.453Z,99221.89
2018-07-10T05:07:06.884Z,99216.11
2018-07-10T05:09:35.851Z,99223.80
2018-07-10T05:12:04.210Z,99227.64
2018-07-10T05:14:32.259Z,99223.55
2018-07-10T05:17:00.586Z,99227.68
2018-07-10T05:19:28.711Z,99234.50
2018-07-10T05:21:56.706Z,99233.43
2018-07-10T05:24:24.756Z,99232.59
2018-07-10T05:26:52.759Z,99230.89
2018-07-10T05:29:20.785Z,99228.72
2018-07-10T05:31:49.134Z,99236.98
2018-07-10T05:34:17.149Z,99234.65
2018-07-10T05:36:45.209Z,99238.77
2018-07-10T05:39:13.224Z,99234.95
2018-07-10T05:41:45.160Z,99236.03
2018-07-10T05:44:18.861Z,99234.72
2018-07-10T05:46:47.281Z,99232.33
2018-07-10T05:49:15.790Z,99230.38
2018-07-10T05:51:47.363Z,99233.44
2018-07-10T05:54:15.482Z,99238.64
2018-07-10T05:56:43.539Z,99234.79
2018-07-10T05:59:11.769Z,99235.90
2018-07-10T06:01:40.934Z,99240.52
2018-07-10T06:04:11.561Z,99236.36
2018-07-10T06:06:39.946Z,99229.05
2018-07-10T06:09:07.978Z,99232.87
2018-07-10T06:11:36.414Z,99234.52
2018-07-10T06:14:04.444Z,99233.09
2018-07-10T06:16:33.254Z,99233.58
2018-07-10T06:19:01.250Z,99237.41
2018-07-10T06:21:41.878Z,99240.83
2018-07-10T06:24:11.554Z,99238.09
2018-07-10T06:26:41.070Z,99237.27
2018-07-10T06:29:09.486Z,99239.17
2018-07-10T06:31:51.040Z,99240.29
2018-07-10T06:34:20.476Z,99242.78
2018-07-10T06:36:57.313Z,99240.03
2018-07-10T06:39:25.361Z,99243.84
2018-07-10T06:41:58.893Z,99245.48
2018-07-10T06:44:26.921Z,99244.11
2018-07-10T06:46:58.457Z,99241.63
2018-07-10T06:49:32.046Z,99240.22
2018-07-10T06:52:11.752Z,99234.38
2018-07-10T06:54:46.251Z,99233.55
2018-07-10T06:57:14.488Z,99242.30
2018-07-10T06:59:42.453Z,99253.28
2018-07-10T07:02:10.886Z,99256.83
2018-07-10T07:04:38.897Z,99251.31
2018-07-10T07:07:07.239Z,99251.53
2018-07-10T07:09:35.663Z,99250.37
2018-07-10T07:12:03.707Z,99253.66
2018-07-10T07:14:31.682Z,99259.16
2018-07-10T07:16:59.681Z,99252.77
2018-07-10T07:19:27.793Z,99252.03
2018-07-10T07:21:55.810Z,99256.72
2018-07-10T07:24:23.820Z,99254.13
2018-07-10T07:26:51.830Z,99257.97
2018-07-10T07:29:19.835Z,99255.32
2018-07-10T07:31:48.149Z,99259.58
2018-07-10T07:34:16.128Z,99245.30
2018-07-10T07:36:44.033Z,99245.79
2018-07-10T07:39:12.042Z,99248.74
2018-07-10T07:41:40.161Z,99239.75
2018-07-10T07:44:08.343Z,99240.61
2018-07-10T07:46:36.294Z,99240.84
2018-07-10T07:49:04.326Z,99251.12
2018-07-10T07:51:32.295Z,99257.61
2018-07-10T07:54:00.755Z,99257.19
2018-07-10T07:56:28.784Z,99261.17
2018-07-10T07:58:57.138Z,99265.52
2018-07-10T08:01:25.474Z,99259.97
2018-07-10T08:03:54.615Z,99260.48
2018-07-10T08:06:22.696Z,99261.60
2018-07-10T08:08:50.900Z,99259.47
2018-07-10T08:11:19.184Z,99252.84
2018-07-10T08:13:47.643Z,99247.55
2018-07-10T08:16:16.286Z,99249.78
2018-07-10T08:18:44.459Z,99252.77
2018-07-10T08:21:12.651Z,99247.70
2018-07-10T08:23:41.137Z,99238.94
2018-07-10T08:26:09.358Z,99246.45
2018-07-10T08:28:37.415Z,99239.65
2018-07-10T08:31:05.550Z,99242.11
2018-07-10T08:33:33.853Z,99245.50
2018-07-10T08:36:02.008Z,99246.73
2018-07-10T08:38:39.528Z,99253.67
2018-07-10T08:41:12.755Z,99258.88
2018-07-10T08:43:41.015Z,99248.73
2018-07-10T08:46:09.205Z,99250.48
2018-07-10T08:48:37.899Z,99253.17
2018-07-10T08:51:06.158Z,99252.59
2018-07-10T08:53:34.303Z,99247.55
2018-07-10T08:56:02.496Z,99238.95
2018-07-10T08:58:30.773Z,99242.80
2018-07-10T09:00:58.964Z,99238.44
2018-07-10T09:03:27.160Z,99245.19
2018-07-10T09:05:55.338Z,99234.98
2018-07-10T09:08:23.540Z,99231.80
2018-07-10T09:10:52.075Z,99240.39
2018-07-10T09:13:20.366Z,99241.40
2018-07-10T09:15:48.705Z,99237.13
2018-07-10T09:18:16.932Z,99239.64
2018-07-10T09:20:49.514Z,99241.28
2018-07-10T09:23:19.127Z,99235.20
2018-07-10T09:25:48.514Z,99227.32
2018-07-10T09:28:16.728Z,99223.29
2018-07-10T09:30:44.951Z,99228.69
2018-07-10T09:33:13.188Z,99235.92
2018-07-10T09:35:41.286Z,99232.57
2018-07-10T09:38:09.334Z,99234.00
2018-07-10T09:40:37.623Z,99244.45
2018-07-10T09:43:06.489Z,99248.22
2018-07-10T09:45:36.494Z,99248.63
2018-07-10T09:48:05.659Z,99242.34
2018-07-10T09:50:33.865Z,99246.66
2018-07-10T09:53:02.677Z,99241.08
2018-07-10T09:55:31.041Z,99243.05
2018-07-10T09:58:00.841Z,99246.26
2018-07-10T10:00:34.468Z,99241.30
2018-07-10T10:03:03.492Z,99234.31
2018-07-10T10:05:43.288Z,99227.55
2018-07-10T10:08:12.461Z,99212.38
2018-07-10T10:10:41.060Z,99215.48
2018-07-10T10:13:09.496Z,99212.14
2018-07-10T10:15:37.980Z,99205.31
2018-07-10T10:18:07.908Z,99209.20
2018-07-10T10:20:38.431Z,99201.16
2018-07-10T10:23:06.659Z,99202.41
2018-07-10T10:25:37.315Z,99196.25
2018-07-10T10:28:07.009Z,99195.08
2018-07-10T10:30:36.297Z,99205.25
2018-07-10T10:33:05.094Z,99198.06
2018-07-10T10:35:33.172Z,99200.48
2018-07-10T10:38:02.397Z,99197.89
2018-07-10T10:40:33.142Z,99199.55
2018-07-10T10:43:04.342Z,99192.37
2018-07-10T10:45:35.301Z,99188.59
2018-07-10T10:48:03.797Z,99185.37
2018-07-10T10:50:31.886Z,99179.63
2018-07-10T10:53:00.176Z,99183.14
2018-07-10T10:55:28.278Z,99195.36
2018-07-10T10:57:56.445Z,99192.61
2018-07-10T11:00:25.277Z,99201.66
2018-07-10T11:02:53.450Z,99202.13
2018-07-10T11:05:21.709Z,99202.11
2018-07-10T11:07:49.872Z,99198.16
2018-07-10T11:10:18.905Z,99201.77
2018-07-10T11:12:47.413Z,99200.15
2018-07-10T11:15:15.601Z,99206.27
2018-07-10T11:17:51.123Z,99203.67
2018-07-10T11:20:58.371Z,99199.73
2018-07-10T11:23:56.405Z,99194.17
2018-07-10T11:26:34.940Z,99176.83
2018-07-10T11:29:04.580Z,99181.26
2018-07-10T11:31:33.401Z,99180.66
2018-07-10T11:34:01.669Z,99174.44
2018-07-10T11:36:29.805Z,99171.94
2018-07-10T11:39:05.784Z,99166.80
2018-07-10T11:44:10.411Z,99168.84
2018-07-10T11:46:39.110Z,99161.50
2018-07-10T11:49:07.364Z,99157.73
2018-07-10T11:51:35.539Z,99166.80
2018-07-10T11:54:04.026Z,99177.84
2018-07-10T11:56:32.252Z,99187.13
2018-07-10T11:59:00.750Z,99176.88
2018-07-10T12:01:29.782Z,99183.09
2018-07-10T12:03:58.485Z,99185.36
2018-07-10T12:06:26.750Z,99188.51
2018-07-10T12:08:56.965Z,99194.21
2018-07-10T12:11:27.251Z,99193.63
2018-07-10T12:13:55.397Z,99194.48
2018-07-10T12:16:24.311Z,99209.84
2018-07-10T12:18:52.535Z,99209.98
2018-07-10T12:21:21.027Z,99196.08
2018-07-10T12:23:49.389Z,99194.95
2018-07-10T12:26:17.516Z,99192.23
2018-07-10T12:28:46.264Z,99196.09
2018-07-10T12:31:14.815Z,99189.51
2018-07-10T12:33:42.875Z,99192.60
2018-07-10T12:36:10.831Z,99191.89
2018-07-10T12:38:38.866Z,99177.42
2018-07-10T12:41:06.947Z,99176.67
2018-07-10T12:43:35.008Z,99178.97
2018-07-10T12:46:03.034Z,99173.06
2018-07-10T12:48:31.037Z,99179.92
2018-07-10T12:50:59.983Z,99187.06
2018-07-10T12:53:28.055Z,99179.56
2018-07-10T12:55:58.668Z,99183.56
2018-07-10T12:58:26.691Z,99181.11
2018-07-10T13:00:55.396Z,99176.83
2018-07-10T13:03:23.621Z,99172.23
2018-07-10T13:05:55.914Z,99182.73
2018-07-10T13:08:23.942Z,99186.23
2018-07-10T13:10:51.955Z,99178.30
2018-07-10T13:13:20.030Z,99175.27
2018-07-10T13:15:48.002Z,99177.84
2018-07-10T13:18:19.355Z,99179.36
2018-07-10T13:20:47.378Z,99187.36
2018-07-10T13:23:15.397Z,99190.48
2018-07-10T13:25:43.433Z,99182.62
2018-07-10T13:28:11.366Z,99181.96
2018-07-10T13:30:39.355Z,99185.47
2018-07-10T13:33:07.364Z,99176.53
2018-07-10T13:35:35.748Z,99176.61
2018-07-10T13:38:04.443Z,99180.66
2018-07-10T13:40:33.876Z,99184.05
2018-07-10T13:43:01.934Z,99192.51
2018-07-10T13:45:30.898Z,99185.35
2018-07-10T13:47:58.934Z,99182.67
2018-07-10T13:50:29.022Z,99180.09
2018-07-10T13:52:58.121Z,99173.33
2018-07-10T13:55:26.645Z,99169.87
2018-07-10T13:58:05.071Z,99164.52
2018-07-10T14:00:35.962Z,99164.16
2018-07-10T14:03:04.278Z,99162.21
2018-07-10T14:05:32.295Z,99159.00
2018-07-10T14:08:00.346Z,99155.27
2018-07-10T14:10:28.357Z,99145.84
2018-07-10T14:12:57.370Z,99143.22
2018-07-10T14:15:26.241Z,99143.98
2018-07-10T14:17:54.433Z,99143.55
2018-07-10T14:20:22.730Z,99146.92
2018-07-10T14:22:50.759Z,99138.02
2018-07-10T14:25:19.094Z,99141.03
2018-07-10T14:27:47.054Z,99150.00
2018-07-10T14:30:15.047Z,99151.54
2018-07-10T14:32:43.367Z,99147.84
2018-07-10T14:35:11.473Z,99146.38
2018-07-10T14:37:39.751Z,99144.50
2018-07-10T14:40:07.830Z,99142.44
2018-07-10T14:42:37.281Z,99143.33
2018-07-10T14:45:05.998Z,99154.86
2018-07-10T14:47:37.219Z,99158.35
2018-07-10T14:50:05.259Z,99165.17
2018-07-10T14:52:33.261Z,99155.91
2018-07-10T14:55:01.313Z,99151.66
2018-07-10T14:57:29.435Z,99151.94
2018-07-10T14:59:57.481Z,99150.73
2018-07-10T15:02:25.809Z,99147.87
2018-07-10T15:04:53.813Z,99145.73
2018-07-10T15:07:21.706Z,99143.91
2018-07-10T15:09:49.609Z,99143.83
2018-07-10T15:12:17.521Z,99140.59
2018-07-10T15:14:45.639Z,99137.73
2018-07-10T15:17:19.274Z,99150.61
2018-07-10T15:19:47.855Z,99144.39
2018-07-10T15:22:15.754Z,99147.16
2018-07-10T15:24:44.698Z,99149.25
2018-07-10T15:27:12.618Z,99155.02
2018-07-10T15:29:40.529Z,99145.13
2018-07-10T15:32:08.499Z,99149.60
2018-07-10T15:34:37.276Z,99154.22
2018-07-10T15:37:05.253Z,99159.39
2018-07-10T15:39:33.220Z,99157.58
2018-07-10T15:42:01.187Z,99154.58
2018-07-10T15:44:29.105Z,99161.36
2018-07-10T15:46:56.982Z,99160.98
2018-07-10T15:49:24.901Z,99163.95
2018-07-10T15:51:52.830Z,99159.78
2018-07-10T15:54:21.097Z,99162.30
2018-07-10T15:56:49.023Z,99160.66
2018-07-10T15:59:16.943Z,99158.60
2018-07-10T16:01:45.011Z,99152.97
2018-07-10T16:04:13.066Z,99164.43
2018-07-10T16:06:41.603Z,99158.69
2018-07-10T16:09:16.805Z,99163.68
2018-07-10T16:11:45.279Z,99169.00
2018-07-10T16:14:13.726Z,99173.23
2018-07-10T16:16:42.093Z,99171.19
2018-07-10T16:19:22.194Z,99173.30
2018-07-10T16:22:06.086Z,99162.10
2018-07-10T16:24:38.581Z,99173.38
2018-07-10T16:27:06.654Z,99172.34
2018-07-10T16:29:34.686Z,99165.49
2018-07-10T16:32:06.061Z,99172.23
2018-07-10T16:34:34.105Z,99167.61
2018-07-10T16:37:03.116Z,99173.85
2018-07-10T16:39:31.361Z,99174.44
2018-07-10T16:42:05.001Z,99172.03
2018-07-10T16:44:33.065Z,99177.81
2018-07-10T16:47:07.068Z,99187.85
2018-07-10T16:49:46.702Z,99185.08
2018-07-10T16:52:21.806Z,99185.82
2018-07-10T16:54:49.954Z,99190.61
2018-07-10T16:57:17.990Z,99194.26
2018-07-10T16:59:46.134Z,99193.14
2018-07-10T17:02:14.218Z,99194.02
2018-07-10T17:04:42.517Z,99192.09
2018-07-10T17:07:10.682Z,99195.28
2018-07-10T17:09:38.686Z,99199.13
2018-07-10T17:12:06.661Z,99210.41
2018-07-10T17:14:34.597Z,99212.54
2018-07-10T17:17:02.674Z,99211.33
2018-07-10T17:19:30.677Z,99218.04
2018-07-10T17:21:58.582Z,99219.68
2018-07-10T17:24:26.565Z,99228.97
2018-07-10T17:26:54.673Z,99226.53
2018-07-10T17:29:22.662Z,99232.88
2018-07-10T17:31:50.707Z,99229.39
2018-07-10T17:34:18.723Z,99231.61
2018-07-10T17:36:46.754Z,99236.94
2018-07-10T17:39:14.809Z,99234.05
2018-07-10T17:41:42.840Z,99240.02
2018-07-10T17:44:10.882Z,99237.27
2018-07-10T17:46:39.162Z,99241.39
2018-07-10T17:49:07.138Z,99246.13
2018-07-10T17:51:35.114Z,99246.73
2018-07-10T17:54:03.662Z,99250.02
2018-07-10T17:56:31.746Z,99250.03
2018-07-10T17:59:00.380Z,99250.86
2018-07-10T18:01:28.467Z,99245.96
2018-07-10T18:03:56.641Z,99246.87
2018-07-10T18:06:24.586Z,99247.20
2018-07-10T18:08:52.557Z,99246.48
2018-07-10T18:11:20.564Z,99253.89
2018-07-10T18:13:48.577Z,99253.61
2018-07-10T18:16:16.522Z,99253.94
2018-07-10T18:18:44.495Z,99258.61
2018-07-10T18:21:12.502Z,99254.48
2018-07-10T18:23:40.484Z,99263.81
2018-07-10T18:26:08.371Z,99266.27
2018-07-10T18:28:36.394Z,99270.38
2018-07-10T18:31:04.450Z,99269.05
2018-07-10T18:33:32.402Z,99267.39
2018-07-10T18:36:00.942Z,99270.97
2018-07-10T18:38:28.960Z,99269.59
2018-07-10T18:40:57.037Z,99271.25
2018-07-10T18:43:25.096Z,99278.34
2018-07-10T18:45:53.058Z,99275.92
2018-07-10T18:48:25.923Z,99292.11
2018-07-10T18:50:54.181Z,99285.27
2018-07-10T18:53:22.162Z,99290.48
2018-07-10T18:55:50.669Z,99290.22
2018-07-10T18:58:24.925Z,99297.08
2018-07-10T19:01:03.071Z,99296.28
2018-07-10T19:03:33.669Z,99297.64
2018-07-10T19:06:06.477Z,99304.74
2018-07-10T19:08:34.477Z,99299.02
2018-07-10T19:11:02.918Z,99303.10
2018-07-10T19:13:30.989Z,99299.86
2018-07-10T19:15:59.287Z,99298.47
2018-07-10T19:18:27.373Z,99299.03
2018-07-10T19:21:05.576Z,99307.27
2018-07-10T19:23:45.365Z,99309.72
2018-07-10T19:26:14.048Z,99309.16
2018-07-10T19:28:42.714Z,99312.42
2018-07-10T19:31:17.398Z,99309.16
2018-07-10T19:33:51.960Z,99307.79
2018-07-10T19:36:21.189Z,99317.70
2018-07-10T19:38:49.284Z,99311.65
2018-07-10T19:41:19.666Z,99315.50
2018-07-10T19:43:48.537Z,99313.29
2018-07-10T19:46:16.677Z,99307.23
2018-07-10T19:48:48.125Z,99314.12
2018-07-10T19:51:16.681Z,99310.27
2018-07-10T19:53:52.390Z,99307.26
2018-07-10T19:56:21.185Z,99307.83
2018-07-10T19:58:49.223Z,99318.52
2018-07-10T20:01:29.475Z,99315.73
2018-07-10T20:04:04.998Z,99313.53
2018-07-10T20:06:39.745Z,99320.11
2018-07-10T20:09:11.195Z,99320.39
2018-07-10T20:11:45.456Z,99321.19
2018-07-10T20:14:17.171Z,99318.70
2018-07-10T20:16:51.700Z,99320.31
2018-07-10T20:19:28.686Z,99326.92
2018-07-10T20:24:09.945Z,99320.88
2018-07-10T20:28:51.210Z,99319.76
2018-07-10T20:31:28.091Z,99315.32
2018-07-10T20:34:21.074Z,99323.76
2018-07-10T20:36:53.370Z,99326.00
2018-07-10T20:39:26.349Z,99318.78
2018-07-10T20:41:54.413Z,99320.42
2018-07-10T20:44:22.441Z,99325.91
2018-07-10T20:47:00.578Z,99327.08
2018-07-10T20:50:05.462Z,99326.41
2018-07-10T20:53:00.134Z,99330.59
2018-07-10T20:55:40.766Z,99332.72
2018-07-10T20:58:11.823Z,99324.30
2018-07-10T21:00:50.444Z,99330.02
2018-07-10T21:04:25.913Z,99331.34
2018-07-10T21:06:57.182Z,99331.42
2018-07-10T21:09:35.167Z,99329.47
2018-07-10T21:12:11.593Z,99328.61
2018-07-10T21:15:17.193Z,99330.84
2018-07-10T21:17:57.705Z,99329.23
2018-07-10T21:20:35.614Z,99326.22
2018-07-10T21:23:14.014Z,99326.28
2018-07-10T21:25:51.514Z,99327.84
2018-07-10T21:28:31.217Z,99323.74
2018-07-10T21:31:08.190Z,99323.93
2018-07-10T21:33:43.537Z,99326.77
2018-07-10T21:36:17.985Z,99332.95
2018-07-10T21:39:04.052Z,99326.12
2018-07-10T21:41:53.507Z,99322.24
2018-07-10T21:44:39.522Z,99326.95
2018-07-10T21:47:46.106Z,99323.97
2018-07-10T21:50:23.522Z,99325.52
2018-07-10T21:52:51.565Z,99325.86
2018-07-10T21:55:20.216Z,99327.80
2018-07-10T21:57:48.506Z,99329.23
2018-07-10T22:00:17.103Z,99330.06
2018-07-10T22:02:45.171Z,99327.34
2018-07-10T22:05:13.176Z,99321.62
2018-07-10T22:07:41.339Z,99321.32
2018-07-10T22:10:09.362Z,99321.32
2018-07-10T22:12:42.627Z,99327.38
2018-07-10T22:15:11.470Z,99328.67
2018-07-10T22:17:39.834Z,99326.34
2018-07-10T22:20:08.607Z,99318.88
2018-07-10T22:22:36.692Z,99319.66
2018-07-10T22:25:06.522Z,99317.09
2018-07-10T22:27:36.881Z,99319.19
2018-07-10T22:30:10.488Z,99315.70
2018-07-10T22:32:44.947Z,99315.91
2018-07-10T22:35:14.532Z,99320.09
2018-07-10T22:37:42.638Z,99325.39
2018-07-10T22:40:11.088Z,99330.63
2018-07-10T22:42:39.089Z,99330.41
2018-07-10T22:45:07.130Z,99333.07
2018-07-10T22:47:38.305Z,99330.97
2018-07-10T22:50:08.499Z,99336.10
2018-07-10T22:52:42.737Z,99339.28
2018-07-10T22:55:11.402Z,99334.98
2018-07-10T22:57:39.422Z,99335.47
2018-07-10T23:00:07.430Z,99329.70
2018-07-10T23:02:35.166Z,99336.30
2018-07-10T23:05:03.030Z,99339.16
2018-07-10T23:07:30.991Z,99344.69
2018-07-10T23:09:58.841Z,99349.20
2018-07-10T23:12:26.707Z,99348.16
2018-07-10T23:14:54.570Z,99344.62
2018-07-10T23:17:22.371Z,99352.02
2018-07-10T23:19:50.275Z,99355.61
2018-07-10T23:22:18.829Z,99361.03
2018-07-10T23:24:46.715Z,99355.06
2018-07-10T23:27:14.583Z,99350.45
2018-07-10T23:29:42.466Z,99351.02
2018-07-10T23:32:10.343Z,99356.69
2018-07-10T23:34:38.220Z,99354.05
2018-07-10T23:37:12.154Z,99353.39
2018-07-10T23:39:46.683Z,99345.90
2018-07-10T23:42:30.075Z,99342.48
2018-07-10T23:45:01.667Z,99344.80
2018-07-10T23:47:32.137Z,99338.42
2018-07-10T23:50:07.486Z,99341.47
2018-07-10T23:53:53.686Z,99340.35
2018-07-10T23:56:21.971Z,99357.91
2018-07-10T23:58:50.769Z,99351.72
